Time;durP1;ratioP1;P1;durP2;ratioP2;P2;SDS_P1;SDS_P2;PMS_P1;PMS_P2;Temp;Humidity;BMP_temperature;BMP_pressure;BME280_temperature;BME280_humidity;BME280_pressure;Samples;Min_cycle;Max_cycle;Signal;HPM_P1;HPM_P2
2023/09/26 00:01:58;;;;;;;2.22;0.95;;;;;;;;;;4982324;28;20022;-61
2023/09/26 00:04:26;;;;;;;0.77;0.57;;;;;;;;;;4995259;28;20466;-61
2023/09/26 00:06:57;;;;;;;0.65;0.43;;;;;;;;;;4995125;28;20120;-61
2023/09/26 00:09:23;;;;;;;8.88;0.70;;;;;;;;;;4994620;28;20062;-61
2023/09/26 00:11:50;;;;;;;1.08;0.68;;;;;;;;;;4994256;28;20536;-61
2023/09/26 00:14:17;;;;;;;0.93;0.60;;;;;;;;;;4990131;28;20022;-61
2023/09/26 00:16:43;;;;;;;0.50;0.50;;;;;;;;;;4990227;28;20018;-61
2023/09/26 00:19:10;;;;;;;1.02;0.60;;;;;;;;;;4990153;28;20282;-61
2023/09/26 00:21:37;;;;;;;0.80;0.35;;;;;;;;;;4991055;28;20441;-60
2023/09/26 00:24:03;;;;;;;0.55;0.50;;;;;;;;;;4994852;28;20029;-61
2023/09/26 00:26:30;;;;;;;1.80;0.68;;;;;;;;;;4995094;28;20030;-60
2023/09/26 00:28:57;;;;;;;1.37;0.83;;;;;;;;;;4994767;28;20019;-60
2023/09/26 00:31:24;;;;;;;3.42;0.73;;;;;;;;;;4994828;28;20126;-60
2023/09/26 00:33:50;;;;;;;2.03;0.98;;;;;;;;;;4975882;28;20027;-60
2023/09/26 00:36:17;;;;;;;1.40;0.73;;;;;;;;;;4969679;28;20039;-60
2023/09/26 00:38:44;;;;;;;0.90;0.60;;;;;;;;;;4969851;28;20041;-61
2023/09/26 00:41:10;;;;;;;1.40;0.97;;;;;;;;;;4970673;28;20031;-61
2023/09/26 00:43:37;;;;;;;0.90;0.70;;;;;;;;;;4978145;28;20045;-60
2023/09/26 00:46:04;;;;;;;1.50;1.00;;;;;;;;;;5000201;28;20035;-60
2023/09/26 00:48:31;;;;;;;0.70;0.63;;;;;;;;;;4994597;28;20022;-60
2023/09/26 00:50:58;;;;;;;0.97;0.50;;;;;;;;;;4993776;28;20037;-61
2023/09/26 00:53:26;;;;;;;0.53;0.37;;;;;;;;;;4994300;28;20031;-61
2023/09/26 00:55:55;;;;;;;1.00;0.70;;;;;;;;;;4993914;28;20493;-61
2023/09/26 00:58:25;;;;;;;0.87;0.60;;;;;;;;;;4989852;28;20414;-61
2023/09/26 01:00:53;;;;;;;0.60;0.50;;;;;;;;;;4989442;28;20022;-61
2023/09/26 01:03:21;;;;;;;1.20;0.73;;;;;;;;;;4974729;28;20407;-61
2023/09/26 01:05:47;;;;;;;0.60;0.40;;;;;;;;;;4969742;28;21034;-61
2023/09/26 01:08:14;;;;;;;0.63;0.53;;;;;;;;;;4960114;28;20381;-60
2023/09/26 01:10:41;;;;;;;1.10;0.63;;;;;;;;;;4994050;28;20363;-60
2023/09/26 01:13:08;;;;;;;1.00;0.67;;;;;;;;;;4993801;28;20037;-61
2023/09/26 01:15:36;;;;;;;0.87;0.43;;;;;;;;;;4994010;28;20492;-61
2023/09/26 01:18:04;;;;;;;0.33;0.33;;;;;;;;;;4993942;28;20030;-61
2023/09/26 01:20:31;;;;;;;0.77;0.57;;;;;;;;;;4990376;28;20053;-61
2023/09/26 01:22:58;;;;;;;0.30;0.30;;;;;;;;;;4989242;28;20023;-62
2023/09/26 01:25:25;;;;;;;0.77;0.50;;;;;;;;;;4988786;28;20036;-61
2023/09/26 01:27:51;;;;;;;0.47;0.43;;;;;;;;;;4988913;28;20102;-61
2023/09/26 01:30:18;;;;;;;0.43;0.40;;;;;;;;;;4991239;28;20057;-61
2023/09/26 01:32:45;;;;;;;0.40;0.40;;;;;;;;;;4993511;28;20061;-60
2023/09/26 01:35:11;;;;;;;0.37;0.33;;;;;;;;;;4993501;28;20027;-61
2023/09/26 01:37:38;;;;;;;0.50;0.40;;;;;;;;;;4993399;28;20073;-61
2023/09/26 01:40:15;;;;;;;12.80;0.67;;;;;;;;;;4993578;28;20477;-60
2023/09/26 01:42:41;;;;;;;1.00;0.70;;;;;;;;;;4990920;28;20073;-61
2023/09/26 01:45:09;;;;;;;2.37;1.00;;;;;;;;;;4988666;28;20034;-61
2023/09/26 01:47:44;;;;;;;4.97;1.50;;;;;;;;;;4988105;28;20355;-61
2023/09/26 01:50:11;;;;;;;4.18;0.60;;;;;;;;;;4988376;28;20034;-61
2023/09/26 01:52:38;;;;;;;0.83;0.53;;;;;;;;;;4990672;28;20377;-60
2023/09/26 01:55:06;;;;;;;0.70;0.53;;;;;;;;;;4993296;28;20022;-61
2023/09/26 01:57:33;;;;;;;0.50;0.43;;;;;;;;;;4993391;28;20023;-61
2023/09/26 02:00:13;;;;;;;0.33;0.30;;;;;;;;;;4993179;28;20076;-61
2023/09/26 02:02:43;;;;;;;0.60;0.50;;;;;;;;;;4979849;28;20418;-61
2023/09/26 02:05:11;;;;;;;0.97;0.60;;;;;;;;;;4971085;28;20031;-61
2023/09/26 02:07:37;;;;;;;0.30;0.30;;;;;;;;;;4968993;28;20019;-60
2023/09/26 02:10:04;;;;;;;0.37;0.30;;;;;;;;;;4969218;28;20030;-61
2023/09/26 02:12:31;;;;;;;0.77;0.53;;;;;;;;;;4968860;28;20042;-61
2023/09/26 02:15:00;;;;;;;0.53;0.33;;;;;;;;;;4970114;28;20529;-61
2023/09/26 02:17:28;;;;;;;1.17;0.40;;;;;;;;;;4973593;28;20367;-61
2023/09/26 02:19:54;;;;;;;7.53;0.67;;;;;;;;;;4981685;28;20554;-60
2023/09/26 02:22:21;;;;;;;1.60;0.63;;;;;;;;;;4987156;28;20032;-61
2023/09/26 02:24:52;;;;;;;0.83;0.40;;;;;;;;;;4991720;28;20474;-60
2023/09/26 02:27:18;;;;;;;9.17;0.97;;;;;;;;;;4991259;28;20358;-59
2023/09/26 02:29:46;;;;;;;1.20;0.70;;;;;;;;;;4987104;28;20031;-60
2023/09/26 02:32:13;;;;;;;1.50;0.73;;;;;;;;;;4987833;28;20053;-60
2023/09/26 02:34:40;;;;;;;12.20;0.97;;;;;;;;;;4988011;28;20034;-60
2023/09/26 02:37:06;;;;;;;12.43;0.87;;;;;;;;;;4988374;28;20030;-59
2023/09/26 02:39:33;;;;;;;2.03;1.47;;;;;;;;;;4992174;28;20053;-60
2023/09/26 02:42:00;;;;;;;8.80;2.13;;;;;;;;;;4992733;28;20482;-61
2023/09/26 02:44:26;;;;;;;3.80;1.93;;;;;;;;;;4992448;28;20023;-60
2023/09/26 02:46:53;;;;;;;2.27;1.50;;;;;;;;;;4992610;28;20045;-60
2023/09/26 02:49:19;;;;;;;1.50;1.13;;;;;;;;;;4992407;28;20457;-60
2023/09/26 02:51:46;;;;;;;0.60;0.60;;;;;;;;;;4987734;28;20359;-60
2023/09/26 02:54:13;;;;;;;1.30;0.70;;;;;;;;;;4987933;28;20104;-61
2023/09/26 02:56:39;;;;;;;0.83;0.60;;;;;;;;;;4987040;28;20031;-60
2023/09/26 02:59:06;;;;;;;2.67;1.37;;;;;;;;;;4987863;28;20026;-60
2023/09/26 03:01:33;;;;;;;0.97;0.53;;;;;;;;;;4994555;28;20025;-60
2023/09/26 03:03:59;;;;;;;0.87;0.63;;;;;;;;;;4996575;28;20377;-60
2023/09/26 03:06:26;;;;;;;0.40;0.20;;;;;;;;;;4996074;28;20054;-60
2023/09/26 03:08:53;;;;;;;0.63;0.30;;;;;;;;;;4996597;28;20034;-60
2023/09/26 03:11:19;;;;;;;1.03;0.53;;;;;;;;;;4996357;28;20022;-60
2023/09/26 03:13:46;;;;;;;3.30;1.33;;;;;;;;;;4991675;28;20085;-60
2023/09/26 03:16:14;;;;;;;4.80;1.63;;;;;;;;;;4991332;28;20085;-60
2023/09/26 03:18:41;;;;;;;1.33;0.87;;;;;;;;;;4991555;28;20026;-60
2023/09/26 03:21:08;;;;;;;1.93;0.93;;;;;;;;;;4991074;28;20030;-60
2023/09/26 03:23:35;;;;;;;4.47;1.03;;;;;;;;;;4994290;28;20068;-60
2023/09/26 03:26:01;;;;;;;1.70;0.90;;;;;;;;;;4995555;28;20058;-60
2023/09/26 03:28:28;;;;;;;1.30;0.73;;;;;;;;;;4995971;28;20026;-60
2023/09/26 03:30:55;;;;;;;1.20;0.77;;;;;;;;;;4995214;28;20061;-60
2023/09/26 03:33:22;;;;;;;0.40;0.40;;;;;;;;;;4995992;28;20033;-60
2023/09/26 03:35:48;;;;;;;2.37;0.90;;;;;;;;;;4993072;28;20062;-61
2023/09/26 03:38:15;;;;;;;0.60;0.43;;;;;;;;;;4989390;28;20036;-60
2023/09/26 03:40:42;;;;;;;1.23;0.67;;;;;;;;;;4971426;28;20102;-60
2023/09/26 03:43:09;;;;;;;1.67;0.73;;;;;;;;;;4971653;28;20019;-60
2023/09/26 03:45:35;;;;;;;1.50;0.70;;;;;;;;;;4972822;28;20390;-59
2023/09/26 03:48:02;;;;;;;1.13;0.73;;;;;;;;;;4975993;28;20118;-60
2023/09/26 03:50:29;;;;;;;1.37;0.80;;;;;;;;;;4976460;28;20102;-60
2023/09/26 03:52:55;;;;;;;1.00;0.67;;;;;;;;;;4976045;28;20065;-61
2023/09/26 03:55:23;;;;;;;0.50;0.30;;;;;;;;;;4979060;28;20026;-60
2023/09/26 03:57:49;;;;;;;0.87;0.47;;;;;;;;;;4993509;28;20069;-61
2023/09/26 04:00:18;;;;;;;2.90;1.07;;;;;;;;;;4990348;28;20502;-60
2023/09/26 04:02:45;;;;;;;0.63;0.40;;;;;;;;;;4986886;28;20026;-60
2023/09/26 04:05:11;;;;;;;10.97;0.83;;;;;;;;;;4990219;28;20106;-59
2023/09/26 04:07:38;;;;;;;1.07;0.63;;;;;;;;;;4991070;28;20030;-60
2023/09/26 04:10:05;;;;;;;0.60;0.60;;;;;;;;;;4994686;28;20437;-60
2023/09/26 04:12:32;;;;;;;1.10;0.53;;;;;;;;;;4994998;28;20026;-60
2023/09/26 04:14:58;;;;;;;8.77;1.10;;;;;;;;;;4995084;28;20018;-60
2023/09/26 04:17:25;;;;;;;1.90;1.33;;;;;;;;;;4995131;28;20517;-60
2023/09/26 04:19:52;;;;;;;6.93;1.23;;;;;;;;;;4994483;28;20026;-60
2023/09/26 04:22:18;;;;;;;4.03;1.73;;;;;;;;;;4989740;28;20022;-60
2023/09/26 04:24:45;;;;;;;4.13;1.70;;;;;;;;;;4990312;28;20390;-60
2023/09/26 04:27:12;;;;;;;7.17;1.37;;;;;;;;;;4989718;28;20034;-60
2023/09/26 04:29:38;;;;;;;2.13;1.20;;;;;;;;;;4989879;28;20030;-60
2023/09/26 04:32:05;;;;;;;2.27;1.13;;;;;;;;;;4994505;28;20515;-60
2023/09/26 04:34:32;;;;;;;1.80;0.83;;;;;;;;;;4994917;28;20019;-60
2023/09/26 04:36:58;;;;;;;0.93;0.60;;;;;;;;;;4994613;28;20045;-60
2023/09/26 04:39:25;;;;;;;1.10;0.50;;;;;;;;;;4994709;28;20069;-60
2023/09/26 04:41:52;;;;;;;1.33;0.80;;;;;;;;;;4994897;28;20026;-60
2023/09/26 04:44:19;;;;;;;0.80;0.63;;;;;;;;;;4990358;28;20105;-60
2023/09/26 04:46:45;;;;;;;0.67;0.60;;;;;;;;;;4989420;28;20058;-59
2023/09/26 04:49:12;;;;;;;0.60;0.50;;;;;;;;;;4989794;28;20084;-60
2023/09/26 04:51:39;;;;;;;0.87;0.50;;;;;;;;;;4989755;28;20029;-60
2023/09/26 04:54:05;;;;;;;0.53;0.47;;;;;;;;;;4992888;28;20117;-60
2023/09/26 04:56:32;;;;;;;0.27;0.20;;;;;;;;;;4981936;28;20035;-59
2023/09/26 04:58:58;;;;;;;4.00;0.73;;;;;;;;;;4974925;28;20031;-59
2023/09/26 05:01:26;;;;;;;1.77;0.60;;;;;;;;;;4975153;28;20018;-59
2023/09/26 05:03:53;;;;;;;3.40;0.70;;;;;;;;;;4984386;28;20026;-60
2023/09/26 05:06:19;;;;;;;1.60;0.63;;;;;;;;;;4990917;28;20038;-60
2023/09/26 05:08:46;;;;;;;5.40;0.53;;;;;;;;;;4989108;28;20026;-60
2023/09/26 05:11:14;;;;;;;12.43;1.10;;;;;;;;;;4989492;28;20026;-60
2023/09/26 05:13:41;;;;;;;1.00;0.53;;;;;;;;;;4989235;28;20027;-60
2023/09/26 05:16:11;;;;;;;0.77;0.70;;;;;;;;;;4991386;28;20022;-60
2023/09/26 05:18:37;;;;;;;0.90;0.60;;;;;;;;;;4993980;28;20386;-60
2023/09/26 05:21:07;;;;;;;1.27;0.53;;;;;;;;;;4993876;28;20485;-60
2023/09/26 05:23:34;;;;;;;0.97;0.73;;;;;;;;;;4993366;28;20037;-60
2023/09/26 05:26:08;;;;;;;0.50;0.40;;;;;;;;;;4993327;28;20031;-59
2023/09/26 05:28:34;;;;;;;3.67;1.20;;;;;;;;;;4991169;28;20027;-61
2023/09/26 05:31:01;;;;;;;3.03;1.33;;;;;;;;;;4988131;28;20030;-60
2023/09/26 05:33:28;;;;;;;6.80;1.80;;;;;;;;;;4988942;28;20034;-60
2023/09/26 05:35:55;;;;;;;2.37;1.23;;;;;;;;;;4988923;28;20065;-60
2023/09/26 05:38:23;;;;;;;2.77;1.10;;;;;;;;;;4985930;28;20062;-60
2023/09/26 05:40:51;;;;;;;9.37;1.60;;;;;;;;;;4971334;28;20113;-60
2023/09/26 05:43:17;;;;;;;1.07;0.80;;;;;;;;;;4971967;28;20033;-60
2023/09/26 05:45:44;;;;;;;1.83;0.87;;;;;;;;;;4971682;28;20038;-60
2023/09/26 05:48:11;;;;;;;16.93;0.77;;;;;;;;;;4971870;28;20079;-60
2023/09/26 05:50:38;;;;;;;2.67;1.10;;;;;;;;;;4987358;28;20166;-61
2023/09/26 05:53:04;;;;;;;0.87;0.67;;;;;;;;;;4986694;28;20101;-61
2023/09/26 05:55:32;;;;;;;0.50;0.50;;;;;;;;;;4987986;28;20053;-61
2023/09/26 05:57:59;;;;;;;0.70;0.50;;;;;;;;;;4987918;28;20109;-61
2023/09/26 06:00:25;;;;;;;0.80;0.47;;;;;;;;;;4988736;28;20085;-60
2023/09/26 06:02:53;;;;;;;1.57;0.87;;;;;;;;;;4993050;28;20023;-60
2023/09/26 06:05:20;;;;;;;1.40;0.73;;;;;;;;;;4992688;28;20030;-61
2023/09/26 06:07:48;;;;;;;1.57;0.80;;;;;;;;;;4993158;28;20567;-61
2023/09/26 06:10:15;;;;;;;0.90;0.60;;;;;;;;;;4992766;28;20034;-61
2023/09/26 06:12:42;;;;;;;0.83;0.60;;;;;;;;;;4992172;28;20025;-61
2023/09/26 06:15:09;;;;;;;1.17;0.80;;;;;;;;;;4987783;28;20035;-61
2023/09/26 06:17:36;;;;;;;2.87;1.07;;;;;;;;;;4987759;28;20026;-61
2023/09/26 06:20:08;;;;;;;3.00;1.60;;;;;;;;;;4987372;28;20038;-61
2023/09/26 06:22:35;;;;;;;1.23;0.80;;;;;;;;;;4987470;28;20038;-61
2023/09/26 06:25:04;;;;;;;1.73;1.20;;;;;;;;;;4992753;28;20105;-61
2023/09/26 06:27:35;;;;;;;4.80;1.23;;;;;;;;;;4992487;28;20057;-61
2023/09/26 06:30:02;;;;;;;2.67;1.23;;;;;;;;;;4973322;28;20034;-60
2023/09/26 06:32:29;;;;;;;1.80;1.03;;;;;;;;;;4971128;28;20239;-58
2023/09/26 06:34:59;;;;;;;1.43;0.90;;;;;;;;;;4989913;28;20065;-59
2023/09/26 06:37:26;;;;;;;6.83;0.80;;;;;;;;;;4987316;28;20481;-58
2023/09/26 06:39:53;;;;;;;1.53;0.90;;;;;;;;;;4985192;28;20023;-58
2023/09/26 06:42:20;;;;;;;2.00;0.90;;;;;;;;;;4980972;28;20045;-60
2023/09/26 06:44:49;;;;;;;3.90;1.13;;;;;;;;;;4985194;28;20034;-58
2023/09/26 06:47:17;;;;;;;0.60;0.57;;;;;;;;;;4986314;28;20070;-58
2023/09/26 06:49:46;;;;;;;1.13;0.80;;;;;;;;;;4970921;28;20030;-58
2023/09/26 06:52:13;;;;;;;1.17;0.77;;;;;;;;;;4983142;28;20497;-58
2023/09/26 06:54:40;;;;;;;0.50;0.50;;;;;;;;;;4971856;28;20066;-58
2023/09/26 06:57:09;;;;;;;1.73;0.83;;;;;;;;;;4971928;28;20038;-60
2023/09/26 06:59:36;;;;;;;0.80;0.67;;;;;;;;;;4970405;28;20481;-59
2023/09/26 07:02:03;;;;;;;0.93;0.63;;;;;;;;;;4985564;28;20033;-58
2023/09/26 07:04:30;;;;;;;1.10;0.80;;;;;;;;;;4970625;28;20489;-59
2023/09/26 07:06:59;;;;;;;1.83;1.20;;;;;;;;;;4986621;28;20042;-59
2023/09/26 07:09:26;;;;;;;0.87;0.47;;;;;;;;;;4990820;28;20046;-59
2023/09/26 07:11:53;;;;;;;3.87;1.53;;;;;;;;;;4990544;28;20113;-58
2023/09/26 07:14:20;;;;;;;1.03;0.90;;;;;;;;;;4976995;28;20769;-58
2023/09/26 07:16:47;;;;;;;1.20;0.87;;;;;;;;;;4973996;28;20041;-58
2023/09/26 07:19:14;;;;;;;6.37;0.70;;;;;;;;;;4972965;28;20035;-58
2023/09/26 07:21:40;;;;;;;1.23;0.87;;;;;;;;;;4968414;28;20053;-58
2023/09/26 07:24:08;;;;;;;1.40;0.87;;;;;;;;;;4980761;28;20030;-58
2023/09/26 07:26:35;;;;;;;0.70;0.50;;;;;;;;;;4986547;28;20038;-58
2023/09/26 07:29:01;;;;;;;1.73;1.03;;;;;;;;;;4986753;28;20081;-58
2023/09/26 07:31:30;;;;;;;2.27;0.53;;;;;;;;;;4989928;28;20484;-58
2023/09/26 07:33:56;;;;;;;1.30;0.83;;;;;;;;;;4980691;28;20027;-58
2023/09/26 07:36:23;;;;;;;2.50;1.47;;;;;;;;;;4973862;28;20019;-58
2023/09/26 07:38:50;;;;;;;1.87;1.20;;;;;;;;;;4981289;28;20597;-58
2023/09/26 07:41:17;;;;;;;3.23;1.30;;;;;;;;;;4988553;28;20038;-58
2023/09/26 07:43:43;;;;;;;5.87;1.27;;;;;;;;;;4978208;28;20039;-58
2023/09/26 07:46:11;;;;;;;5.60;1.60;;;;;;;;;;4968915;28;20398;-59
2023/09/26 07:48:38;;;;;;;1.97;1.00;;;;;;;;;;4986863;28;20026;-58
2023/09/26 07:51:06;;;;;;;1.93;1.13;;;;;;;;;;4989035;28;20399;-59
2023/09/26 07:53:32;;;;;;;1.33;1.00;;;;;;;;;;4984342;28;20097;-59
2023/09/26 07:55:59;;;;;;;0.97;0.70;;;;;;;;;;4986081;28;20030;-58
2023/09/26 07:58:26;;;;;;;1.27;0.90;;;;;;;;;;4995087;28;20034;-59
2023/09/26 08:00:58;;;;;;;2.00;1.13;;;;;;;;;;4994927;28;20470;-58
2023/09/26 08:03:25;;;;;;;1.23;1.07;;;;;;;;;;4994927;28;20041;-58
2023/09/26 08:05:59;;;;;;;1.33;0.97;;;;;;;;;;4986585;28;20038;-58
2023/09/26 08:08:26;;;;;;;1.27;0.70;;;;;;;;;;4984449;28;20034;-58
2023/09/26 08:10:52;;;;;;;1.40;0.83;;;;;;;;;;4988413;28;20509;-58
2023/09/26 08:13:19;;;;;;;2.23;1.33;;;;;;;;;;4979049;28;20061;-58
2023/09/26 08:15:46;;;;;;;0.93;0.77;;;;;;;;;;4991937;28;20023;-58
2023/09/26 08:18:13;;;;;;;0.83;0.57;;;;;;;;;;4994918;28;20027;-58
2023/09/26 08:20:39;;;;;;;1.50;1.00;;;;;;;;;;4994624;28;20031;-58
2023/09/26 08:23:06;;;;;;;16.20;0.97;;;;;;;;;;4994852;28;20488;-58
2023/09/26 08:25:34;;;;;;;2.13;0.83;;;;;;;;;;4994837;28;20492;-58
2023/09/26 08:28:01;;;;;;;7.57;1.20;;;;;;;;;;4992496;28;20062;-58
2023/09/26 08:30:28;;;;;;;1.03;0.83;;;;;;;;;;4989578;28;20060;-58
2023/09/26 08:32:56;;;;;;;1.80;1.03;;;;;;;;;;4989477;28;20023;-59
2023/09/26 08:35:22;;;;;;;2.03;0.80;;;;;;;;;;4989441;28;20489;-58
2023/09/26 08:37:49;;;;;;;1.30;0.93;;;;;;;;;;4990324;28;20030;-58
2023/09/26 08:40:16;;;;;;;2.10;1.07;;;;;;;;;;4994435;28;20537;-58
2023/09/26 08:42:49;;;;;;;1.67;1.00;;;;;;;;;;4994663;28;20346;-58
2023/09/26 08:45:16;;;;;;;0.77;0.60;;;;;;;;;;4994442;28;20034;-58
2023/09/26 08:47:44;;;;;;;0.70;0.60;;;;;;;;;;4994529;28;20038;-58
2023/09/26 08:50:11;;;;;;;1.30;0.80;;;;;;;;;;4992982;28;20053;-58
2023/09/26 08:52:37;;;;;;;1.50;1.17;;;;;;;;;;4989209;28;20108;-58
2023/09/26 08:55:04;;;;;;;3.07;1.03;;;;;;;;;;4988759;28;20034;-58
2023/09/26 08:57:36;;;;;;;3.50;1.00;;;;;;;;;;4988326;28;20106;-58
2023/09/26 09:00:03;;;;;;;0.97;0.67;;;;;;;;;;4989661;28;20493;-58
2023/09/26 09:02:33;;;;;;;4.13;1.53;;;;;;;;;;4994152;28;20110;-58
2023/09/26 09:04:59;;;;;;;3.77;1.50;;;;;;;;;;4994121;28;20030;-58
2023/09/26 09:07:26;;;;;;;1.47;0.70;;;;;;;;;;4993735;28;20122;-58
2023/09/26 09:10:04;;;;;;;2.27;0.83;;;;;;;;;;4994157;28;20034;-58
2023/09/26 09:12:31;;;;;;;1.40;0.90;;;;;;;;;;4992855;28;20033;-58
2023/09/26 09:14:57;;;;;;;2.13;0.90;;;;;;;;;;4988496;28;20030;-58
2023/09/26 09:17:24;;;;;;;1.33;0.93;;;;;;;;;;4988675;28;20026;-58
2023/09/26 09:19:52;;;;;;;1.47;0.80;;;;;;;;;;4988662;28;20149;-58
2023/09/26 09:22:23;;;;;;;0.47;0.43;;;;;;;;;;4987738;28;20137;-58
2023/09/26 09:24:59;;;;;;;0.97;0.80;;;;;;;;;;4993120;28;20477;-58
2023/09/26 09:27:29;;;;;;;7.17;1.47;;;;;;;;;;4984895;28;20069;-58
2023/09/26 09:30:11;;;;;;;1.47;0.80;;;;;;;;;;4990527;28;20060;-58
2023/09/26 09:32:41;;;;;;;0.67;0.53;;;;;;;;;;4993180;28;20048;-58
2023/09/26 09:35:09;;;;;;;1.80;0.97;;;;;;;;;;4992065;28;20015;-58
2023/09/26 09:37:36;;;;;;;2.33;1.10;;;;;;;;;;4987722;28;20031;-58
2023/09/26 09:40:04;;;;;;;1.03;0.80;;;;;;;;;;4987527;28;20030;-58
2023/09/26 09:42:31;;;;;;;1.10;0.80;;;;;;;;;;4987466;28;20077;-59
2023/09/26 09:44:58;;;;;;;1.10;0.90;;;;;;;;;;4988038;28;20030;-58
2023/09/26 09:47:25;;;;;;;1.33;0.80;;;;;;;;;;4992408;28;20030;-57
2023/09/26 09:49:52;;;;;;;1.00;0.90;;;;;;;;;;4992242;28;20022;-58
2023/09/26 09:52:20;;;;;;;1.17;0.73;;;;;;;;;;4992578;28;20081;-58
2023/09/26 09:54:47;;;;;;;1.10;0.77;;;;;;;;;;4991908;28;20025;-58
2023/09/26 09:57:17;;;;;;;1.57;1.10;;;;;;;;;;4991676;28;20113;-58
2023/09/26 09:59:47;;;;;;;1.10;0.87;;;;;;;;;;4987329;28;20033;-58
2023/09/26 10:02:18;;;;;;;2.17;1.13;;;;;;;;;;4987303;28;20023;-58
2023/09/26 10:04:47;;;;;;;0.87;0.70;;;;;;;;;;4987259;28;20026;-58
2023/09/26 10:07:15;;;;;;;0.60;0.50;;;;;;;;;;4987097;28;20030;-58
2023/09/26 10:09:42;;;;;;;1.30;1.00;;;;;;;;;;4991414;28;20106;-58
2023/09/26 10:12:10;;;;;;;2.00;1.00;;;;;;;;;;4992336;28;20026;-58
2023/09/26 10:14:36;;;;;;;8.23;1.53;;;;;;;;;;4992242;28;20106;-58
2023/09/26 10:17:05;;;;;;;2.23;1.30;;;;;;;;;;4992281;28;20023;-58
2023/09/26 10:19:33;;;;;;;1.83;1.30;;;;;;;;;;4991386;28;20022;-58
2023/09/26 10:22:15;;;;;;;2.03;1.17;;;;;;;;;;4986934;28;20023;-58
2023/09/26 10:24:52;;;;;;;1.53;0.97;;;;;;;;;;4986763;28;20058;-58
2023/09/26 10:27:38;;;;;;;2.90;1.73;;;;;;;;;;4987031;28;20042;-58
2023/09/26 10:30:13;;;;;;;2.27;1.60;;;;;;;;;;4987769;28;20108;-59
2023/09/26 10:32:41;;;;;;;5.38;1.77;;;;;;;;;;4991225;28;20042;-58
2023/09/26 10:35:28;;;;;;;2.80;1.30;;;;;;;;;;4991866;28;20023;-58
2023/09/26 10:38:18;;;;;;;1.93;1.20;;;;;;;;;;4912095;28;1898500;-58
2023/09/26 10:40:45;;;;;;;0.93;0.87;;;;;;;;;;4988801;28;20041;-58
2023/09/26 10:43:12;;;;;;;1.20;1.00;;;;;;;;;;4989458;28;20090;-58
2023/09/26 10:45:44;;;;;;;1.43;0.80;;;;;;;;;;4987477;28;20034;-58
2023/09/26 10:48:11;;;;;;;1.10;0.87;;;;;;;;;;4987493;28;20034;-58
2023/09/26 10:50:37;;;;;;;1.43;1.00;;;;;;;;;;4987318;28;20101;-59
2023/09/26 10:53:04;;;;;;;1.80;0.83;;;;;;;;;;4990024;28;20027;-58
2023/09/26 10:55:33;;;;;;;1.50;0.83;;;;;;;;;;4992184;28;20436;-57
2023/09/26 10:58:00;;;;;;;1.50;1.10;;;;;;;;;;4992346;28;20022;-57
2023/09/26 11:00:27;;;;;;;1.67;1.00;;;;;;;;;;4992365;28;20516;-57
2023/09/26 11:02:54;;;;;;;1.10;0.90;;;;;;;;;;4992386;28;20524;-58
2023/09/26 11:05:21;;;;;;;2.20;1.20;;;;;;;;;;4989904;28;20065;-58
2023/09/26 11:07:47;;;;;;;2.37;1.37;;;;;;;;;;4987283;28;20039;-58
2023/09/26 11:10:15;;;;;;;4.70;2.10;;;;;;;;;;4987160;28;20454;-57
2023/09/26 11:12:42;;;;;;;3.07;1.80;;;;;;;;;;4986965;28;20058;-58
2023/09/26 11:15:09;;;;;;;3.50;1.70;;;;;;;;;;4988624;28;20088;-58
2023/09/26 11:17:36;;;;;;;2.60;1.50;;;;;;;;;;4992274;28;20026;-58
2023/09/26 11:20:07;;;;;;;1.77;1.40;;;;;;;;;;4992250;28;20441;-57
2023/09/26 11:22:46;;;;;;;1.50;1.33;;;;;;;;;;4995058;28;20038;-57
2023/09/26 11:25:12;;;;;;;4.07;1.60;;;;;;;;;;4996087;28;20529;-58
2023/09/26 11:27:43;;;;;;;4.03;1.77;;;;;;;;;;4992961;28;20031;-58
2023/09/26 11:30:13;;;;;;;0.80;0.73;;;;;;;;;;4990832;28;20019;-57
2023/09/26 11:32:45;;;;;;;1.87;1.20;;;;;;;;;;4990478;28;20045;-58
2023/09/26 11:35:12;;;;;;;2.47;1.43;;;;;;;;;;4990479;28;20065;-58
2023/09/26 11:37:38;;;;;;;1.50;1.33;;;;;;;;;;4992317;28;20026;-58
2023/09/26 11:40:11;;;;;;;2.83;1.77;;;;;;;;;;4979029;28;20482;-58
2023/09/26 11:42:47;;;;;;;2.67;1.60;;;;;;;;;;4981400;28;20041;-57
2023/09/26 11:45:27;;;;;;;10.37;1.90;;;;;;;;;;4995537;28;20441;-57
2023/09/26 11:47:54;;;;;;;1.73;1.23;;;;;;;;;;4985519;28;20034;-58
2023/09/26 11:50:21;;;;;;;1.43;1.00;;;;;;;;;;4972898;28;20058;-58
2023/09/26 11:52:48;;;;;;;1.90;1.33;;;;;;;;;;4970935;28;20474;-58
2023/09/26 11:55:19;;;;;;;2.67;0.73;;;;;;;;;;4970565;28;20018;-57
2023/09/26 11:57:46;;;;;;;1.97;1.17;;;;;;;;;;4980068;28;20468;-58
2023/09/26 12:00:16;;;;;;;2.47;1.40;;;;;;;;;;4992310;28;20022;-58
2023/09/26 12:02:46;;;;;;;3.37;1.20;;;;;;;;;;4982928;28;20050;-57
2023/09/26 12:05:13;;;;;;;2.10;1.30;;;;;;;;;;4975514;28;20305;-58
2023/09/26 12:07:43;;;;;;;1.73;1.17;;;;;;;;;;4975573;28;20486;-58
2023/09/26 12:10:10;;;;;;;1.83;1.40;;;;;;;;;;4975316;28;20061;-59
2023/09/26 12:12:38;;;;;;;0.87;0.70;;;;;;;;;;4983822;28;20030;-58
2023/09/26 12:15:21;;;;;;;0.60;0.60;;;;;;;;;;4965557;28;20031;-58
2023/09/26 12:17:48;;;;;;;1.50;1.30;;;;;;;;;;4974231;28;20129;-58
2023/09/26 12:20:21;;;;;;;1.10;1.00;;;;;;;;;;4989872;28;20382;-58
2023/09/26 12:22:50;;;;;;;2.00;1.23;;;;;;;;;;4992001;28;20553;-57
2023/09/26 12:25:18;;;;;;;5.07;1.57;;;;;;;;;;4994355;28;20310;-58
2023/09/26 12:27:44;;;;;;;3.10;1.40;;;;;;;;;;4994606;28;20298;-58
2023/09/26 12:30:11;;;;;;;2.57;1.30;;;;;;;;;;4994791;28;20033;-57
2023/09/26 12:32:38;;;;;;;3.90;1.33;;;;;;;;;;4994344;28;20257;-58
2023/09/26 12:35:05;;;;;;;1.13;1.00;;;;;;;;;;4992061;28;20268;-59
2023/09/26 12:37:32;;;;;;;1.37;0.97;;;;;;;;;;4981482;28;20035;-58
2023/09/26 12:39:59;;;;;;;4.40;1.80;;;;;;;;;;4980660;28;20034;-58
2023/09/26 12:42:26;;;;;;;3.83;1.40;;;;;;;;;;4989028;28;20030;-58
2023/09/26 12:44:52;;;;;;;2.17;1.03;;;;;;;;;;4971941;28;20284;-58
2023/09/26 12:47:19;;;;;;;7.00;2.00;;;;;;;;;;4974959;28;20776;-58
2023/09/26 12:49:46;;;;;;;1.47;0.90;;;;;;;;;;4983989;28;20272;-57
2023/09/26 12:52:16;;;;;;;3.10;1.37;;;;;;;;;;4994091;28;20781;-58
2023/09/26 12:54:44;;;;;;;2.07;1.40;;;;;;;;;;4985159;28;20752;-58
2023/09/26 12:57:11;;;;;;;2.50;2.07;;;;;;;;;;4972499;28;20748;-57
2023/09/26 12:59:38;;;;;;;3.23;2.33;;;;;;;;;;4985001;28;20280;-58
2023/09/26 13:02:05;;;;;;;2.70;1.83;;;;;;;;;;4988674;28;20035;-58
2023/09/26 13:04:33;;;;;;;2.00;1.47;;;;;;;;;;4989036;28;20624;-58
2023/09/26 13:06:59;;;;;;;1.73;1.27;;;;;;;;;;4989712;28;20288;-59
2023/09/26 13:09:26;;;;;;;2.17;1.40;;;;;;;;;;4974635;28;20651;-58
2023/09/26 13:11:53;;;;;;;4.47;1.70;;;;;;;;;;4974383;28;20045;-58
2023/09/26 13:14:20;;;;;;;3.23;2.03;;;;;;;;;;4988465;28;20026;-58
2023/09/26 13:16:47;;;;;;;4.67;2.47;;;;;;;;;;4988623;28;20375;-58
2023/09/26 13:19:14;;;;;;;2.97;2.07;;;;;;;;;;4973174;28;20034;-58
2023/09/26 13:21:41;;;;;;;4.20;2.40;;;;;;;;;;4969173;28;20372;-58
2023/09/26 13:24:07;;;;;;;2.10;1.53;;;;;;;;;;4980328;28;20076;-59
2023/09/26 13:26:34;;;;;;;2.90;1.63;;;;;;;;;;4988459;28;20041;-58
2023/09/26 13:29:01;;;;;;;1.13;1.03;;;;;;;;;;4987914;28;20348;-58
2023/09/26 13:31:27;;;;;;;2.40;1.53;;;;;;;;;;4975877;28;20784;-58
2023/09/26 13:33:54;;;;;;;1.17;1.03;;;;;;;;;;4993114;28;20026;-59
2023/09/26 13:36:20;;;;;;;1.23;0.73;;;;;;;;;;4993669;28;20030;-58
2023/09/26 13:38:47;;;;;;;1.63;1.17;;;;;;;;;;4987149;28;20019;-58
2023/09/26 13:41:14;;;;;;;1.60;1.10;;;;;;;;;;4973598;28;20418;-58
2023/09/26 13:43:41;;;;;;;1.77;1.30;;;;;;;;;;4968354;28;20034;-58
2023/09/26 13:46:08;;;;;;;2.07;1.40;;;;;;;;;;4968804;28;20163;-58
2023/09/26 13:48:34;;;;;;;1.37;1.13;;;;;;;;;;4968366;28;20077;-59
2023/09/26 13:51:01;;;;;;;3.03;1.77;;;;;;;;;;4987665;28;20022;-59
2023/09/26 13:53:28;;;;;;;2.23;1.07;;;;;;;;;;4985741;28;20035;-58
2023/09/26 13:55:54;;;;;;;0.83;0.70;;;;;;;;;;4973900;28;20059;-58
2023/09/26 13:58:21;;;;;;;15.80;1.80;;;;;;;;;;4973745;28;20125;-58
2023/09/26 14:00:47;;;;;;;2.40;1.47;;;;;;;;;;4987192;28;20026;-58
2023/09/26 14:03:14;;;;;;;2.03;1.40;;;;;;;;;;4976880;28;20030;-58
2023/09/26 14:05:41;;;;;;;2.20;1.33;;;;;;;;;;4968795;28;20025;-58
2023/09/26 14:08:07;;;;;;;1.90;1.30;;;;;;;;;;4967947;28;20038;-59
2023/09/26 14:10:34;;;;;;;3.23;1.43;;;;;;;;;;4968516;28;20386;-58
2023/09/26 14:13:04;;;;;;;1.23;0.83;;;;;;;;;;4968373;28;20027;-58
2023/09/26 14:15:30;;;;;;;1.33;0.93;;;;;;;;;;4979692;28;20054;-59
2023/09/26 14:17:57;;;;;;;3.10;1.07;;;;;;;;;;4981401;28;20049;-59
2023/09/26 14:20:24;;;;;;;2.03;1.20;;;;;;;;;;4973441;28;20105;-58
2023/09/26 14:22:51;;;;;;;1.63;1.00;;;;;;;;;;4973291;28;20041;-58
2023/09/26 14:25:18;;;;;;;1.17;0.83;;;;;;;;;;4972943;28;20031;-58
2023/09/26 14:27:45;;;;;;;0.70;0.50;;;;;;;;;;4969024;28;20038;-59
2023/09/26 14:30:12;;;;;;;1.73;1.00;;;;;;;;;;4968036;28;20035;-59
2023/09/26 14:32:42;;;;;;;1.47;0.87;;;;;;;;;;4978189;28;20037;-59
2023/09/26 14:35:10;;;;;;;0.80;0.53;;;;;;;;;;4982405;28;20066;-59
2023/09/26 14:37:37;;;;;;;1.47;0.90;;;;;;;;;;4971414;28;20026;-59
2023/09/26 14:40:04;;;;;;;1.40;0.90;;;;;;;;;;4973079;28;20035;-59
2023/09/26 14:42:31;;;;;;;3.60;1.07;;;;;;;;;;4973074;28;20030;-59
2023/09/26 14:44:58;;;;;;;1.30;0.73;;;;;;;;;;4985648;28;20037;-59
2023/09/26 14:47:25;;;;;;;2.70;1.23;;;;;;;;;;4992090;28;20046;-59